createdAt,value
2022-12-25T00:02:08.172Z,3.00
2022-12-25T00:07:09.834Z,2.53
2022-12-25T00:12:11.555Z,2.80
2022-12-25T00:17:13.433Z,2.70
2022-12-25T00:22:15.154Z,2.90
2022-12-25T00:27:17.256Z,2.83
2022-12-25T00:32:18.938Z,3.10
2022-12-25T00:37:20.707Z,3.40
2022-12-25T00:42:23.871Z,3.10
2022-12-25T00:47:25.663Z,3.47
2022-12-25T00:52:27.375Z,3.40
2022-12-25T00:57:29.112Z,3.23
2022-12-25T01:02:30.974Z,3.20
2022-12-25T01:07:33.005Z,3.00
2022-12-25T01:12:37.549Z,3.17
2022-12-25T01:17:39.507Z,3.30
2022-12-25T01:22:42.019Z,3.60
2022-12-25T01:27:43.726Z,3.33
2022-12-25T01:32:45.558Z,3.80
2022-12-25T01:37:47.194Z,3.70
2022-12-25T01:42:48.956Z,3.63
2022-12-25T01:47:50.958Z,3.33
2022-12-25T01:52:54.068Z,3.50
2022-12-25T01:57:56.343Z,3.17
2022-12-25T02:02:59.215Z,3.10
2022-12-25T02:08:12.735Z,2.77
2022-12-25T02:13:18.475Z,3.23
2022-12-25T02:18:50.413Z,3.10
2022-12-25T02:24:06.570Z,3.30
2022-12-25T02:30:00.797Z,3.33
2022-12-25T02:35:28.478Z,3.77
2022-12-25T02:40:57.938Z,3.70
2022-12-25T02:46:22.615Z,3.20
2022-12-25T02:51:46.348Z,3.13
2022-12-25T02:57:09.075Z,3.30
2022-12-25T03:02:30.477Z,3.50
2022-12-25T03:07:34.612Z,3.40
2022-12-25T03:12:51.781Z,2.87
2022-12-25T03:17:55.633Z,3.90
2022-12-25T03:23:16.211Z,3.00
2022-12-25T03:28:17.974Z,3.13
2022-12-25T03:34:11.467Z,3.33
2022-12-25T03:39:51.372Z,3.57
2022-12-25T03:45:26.729Z,3.57
2022-12-25T03:51:12.969Z,3.50
2022-12-25T03:56:37.075Z,3.60
2022-12-25T04:01:57.498Z,3.43
2022-12-25T04:07:18.082Z,3.47
2022-12-25T04:12:38.255Z,3.27
2022-12-25T04:17:58.428Z,3.90
2022-12-25T04:23:18.643Z,3.80
2022-12-25T04:28:38.873Z,3.70
2022-12-25T04:33:59.885Z,3.83
2022-12-25T04:39:01.696Z,3.83
2022-12-25T04:44:03.496Z,4.47
2022-12-25T04:49:05.209Z,4.40
2022-12-25T04:54:06.850Z,3.60
2022-12-25T04:59:08.585Z,3.50
2022-12-25T05:04:10.317Z,3.80
2022-12-25T05:09:12.197Z,3.70
2022-12-25T05:14:13.870Z,3.87
2022-12-25T05:19:15.627Z,4.00
2022-12-25T05:24:17.242Z,4.30
2022-12-25T05:29:19.024Z,4.43
2022-12-25T05:34:20.827Z,4.20
2022-12-25T05:39:22.757Z,4.10
2022-12-25T05:44:24.498Z,4.30
2022-12-25T05:49:26.187Z,4.63
2022-12-25T05:54:27.972Z,4.50
2022-12-25T05:59:31.617Z,4.47
2022-12-25T06:04:33.305Z,4.20
2022-12-25T06:09:35.023Z,3.83
2022-12-25T06:14:37.029Z,4.23
2022-12-25T06:19:38.771Z,4.17
2022-12-25T06:24:40.847Z,3.90
2022-12-25T06:29:42.675Z,4.27
2022-12-25T06:34:44.557Z,4.37
2022-12-25T06:39:47.774Z,4.40
2022-12-25T06:44:51.137Z,4.40
2022-12-25T06:49:52.793Z,5.10
2022-12-25T06:54:54.525Z,4.20
2022-12-25T06:59:56.188Z,4.10
2022-12-25T07:04:58.777Z,4.47
2022-12-25T07:10:00.401Z,4.07
2022-12-25T07:15:02.142Z,4.47
2022-12-25T07:20:04.155Z,4.93
2022-12-25T07:25:06.784Z,4.50
2022-12-25T07:30:09.126Z,3.93
2022-12-25T07:35:10.849Z,4.10
2022-12-25T07:40:12.921Z,4.10
2022-12-25T07:45:14.829Z,4.60
2022-12-25T07:50:17.017Z,4.57
2022-12-25T07:55:18.843Z,4.40
2022-12-25T08:00:20.790Z,5.10
2022-12-25T08:05:22.491Z,4.03
2022-12-25T08:10:24.238Z,4.40
2022-12-25T08:15:26.032Z,4.00
2022-12-25T08:20:27.750Z,4.10
2022-12-25T08:25:29.669Z,3.97
2022-12-25T08:30:31.569Z,4.00
2022-12-25T08:35:34.221Z,3.20
2022-12-25T08:40:35.968Z,4.30
2022-12-25T08:45:37.640Z,4.87
2022-12-25T08:50:39.353Z,4.50
2022-12-25T08:55:41.275Z,3.90
2022-12-25T09:00:43.137Z,8.17
2022-12-25T09:05:44.882Z,8.23
2022-12-25T09:10:46.583Z,4.30
2022-12-25T09:15:48.333Z,4.67
2022-12-25T09:21:04.789Z,7.03
2022-12-25T09:26:08.702Z,5.23
2022-12-25T09:31:10.511Z,5.40
2022-12-25T09:36:12.369Z,5.00
2022-12-25T09:41:38.425Z,4.10
2022-12-25T09:46:53.191Z,4.07
2022-12-25T09:52:01.636Z,7.53
2022-12-25T09:57:04.023Z,5.13
2022-12-25T10:02:21.161Z,3.57
2022-12-25T10:07:51.626Z,4.10
2022-12-25T10:13:05.424Z,4.00
2022-12-25T10:18:25.528Z,3.80
2022-12-25T10:23:35.495Z,3.50
2022-12-25T10:28:51.277Z,3.40
2022-12-25T10:33:54.257Z,3.60
2022-12-25T10:38:57.271Z,3.00
2022-12-25T10:43:59.197Z,3.47
2022-12-25T10:49:02.967Z,3.50
2022-12-25T10:54:26.274Z,3.53
2022-12-25T10:59:31.159Z,3.23
2022-12-25T11:06:24.509Z,5.20
2022-12-25T11:11:28.048Z,3.27
2022-12-25T11:16:40.280Z,4.57
2022-12-25T11:21:51.879Z,3.50
2022-12-25T11:27:04.634Z,5.43
2022-12-25T11:32:21.103Z,5.60
2022-12-25T11:37:44.421Z,3.87
2022-12-25T11:42:51.671Z,3.27
2022-12-25T11:48:02.356Z,3.60
2022-12-25T11:53:25.191Z,3.03
2022-12-25T11:58:32.566Z,3.97
2022-12-25T12:03:41.502Z,3.30
2022-12-25T12:08:44.076Z,3.60
2022-12-25T12:14:18.623Z,3.93
2022-12-25T12:19:29.298Z,3.80
2022-12-25T12:24:39.350Z,4.83
2022-12-25T12:29:44.314Z,4.80
2022-12-25T12:34:50.564Z,4.67
2022-12-25T12:39:54.526Z,4.33
2022-12-25T12:44:58.395Z,4.20
2022-12-25T12:50:01.490Z,3.97
2022-12-25T12:55:07.395Z,3.70
2022-12-25T13:00:18.890Z,3.50
2022-12-25T13:05:32.234Z,3.13
2022-12-25T13:10:41.406Z,3.40
2022-12-25T13:15:47.616Z,3.93
2022-12-25T13:20:56.631Z,4.77
2022-12-25T13:26:01.172Z,5.30
2022-12-25T13:31:05.379Z,4.27
2022-12-25T13:36:12.591Z,3.97
2022-12-25T13:41:41.753Z,4.13
2022-12-25T13:46:43.601Z,3.90
2022-12-25T13:51:45.793Z,3.60
2022-12-25T13:56:56.558Z,4.20
2022-12-25T14:01:59.939Z,4.77
2022-12-25T14:07:10.709Z,6.10
2022-12-25T14:12:18.939Z,4.67
2022-12-25T14:17:22.377Z,5.57
2022-12-25T14:22:25.230Z,5.03
2022-12-25T14:27:30.483Z,4.87
2022-12-25T14:32:40.822Z,4.10
2022-12-25T14:37:42.604Z,3.23
2022-12-25T14:42:54.689Z,3.80
2022-12-25T14:47:59.273Z,4.17
2022-12-25T14:53:01.231Z,3.67
2022-12-25T14:58:05.749Z,4.07
2022-12-25T15:03:21.357Z,7.27
2022-12-25T15:08:25.094Z,3.87
2022-12-25T15:13:27.888Z,3.90
2022-12-25T15:18:38.341Z,4.10
2022-12-25T15:23:39.984Z,11.33
2022-12-25T15:28:42.172Z,4.60
2022-12-25T15:33:44.352Z,4.27
2022-12-25T15:38:46.162Z,4.90
2022-12-25T15:43:47.849Z,6.23
2022-12-25T15:48:49.404Z,5.77
2022-12-25T15:53:51.120Z,5.70
2022-12-25T15:58:52.780Z,5.60
2022-12-25T16:03:54.475Z,5.13
2022-12-25T16:08:56.131Z,5.50
2022-12-25T16:13:57.857Z,5.80
2022-12-25T16:18:59.564Z,6.20
2022-12-25T16:24:01.143Z,6.70
2022-12-25T16:29:07.307Z,10.23
2022-12-25T16:34:10.064Z,8.60
2022-12-25T16:39:12.022Z,9.40
2022-12-25T16:44:14.774Z,5.83
2022-12-25T16:49:16.429Z,6.77
2022-12-25T16:54:18.177Z,5.83
2022-12-25T16:59:19.809Z,6.27
2022-12-25T17:04:21.518Z,6.20
2022-12-25T17:09:23.488Z,5.20
2022-12-25T17:14:25.359Z,6.23
2022-12-25T17:19:27.514Z,7.93
2022-12-25T17:24:29.924Z,7.37
2022-12-25T17:29:32.030Z,7.70
2022-12-25T17:34:33.790Z,6.47
2022-12-25T17:39:35.386Z,7.30
2022-12-25T17:44:37.003Z,6.80
2022-12-25T17:49:38.581Z,6.80
2022-12-25T17:54:40.816Z,7.00
2022-12-25T17:59:42.444Z,7.63
2022-12-25T18:04:44.173Z,6.43
2022-12-25T18:09:45.842Z,6.53
2022-12-25T18:14:47.448Z,6.80
2022-12-25T18:19:50.754Z,9.23
2022-12-25T18:24:52.683Z,7.57
2022-12-25T18:29:54.278Z,9.73
2022-12-25T18:34:55.987Z,9.30
2022-12-25T18:39:57.602Z,7.97
2022-12-25T18:44:59.407Z,7.83
2022-12-25T18:50:01.213Z,8.00
2022-12-25T18:55:02.900Z,8.50
2022-12-25T19:00:05.031Z,15.57
2022-12-25T19:05:07.057Z,7.80
2022-12-25T19:10:10.318Z,6.70
2022-12-25T19:15:12.215Z,6.07
2022-12-25T19:20:13.831Z,5.57
2022-12-25T19:25:15.557Z,5.40
2022-12-25T19:30:18.289Z,6.20
2022-12-25T19:35:19.865Z,5.67
2022-12-25T19:40:22.635Z,5.23
2022-12-25T19:45:24.489Z,4.53
2022-12-25T19:50:28.567Z,4.10
2022-12-25T19:55:32.114Z,3.63
2022-12-25T20:00:33.838Z,4.63
2022-12-25T20:05:35.715Z,3.30
2022-12-25T20:10:43.144Z,3.60
2022-12-25T20:15:44.806Z,3.10
2022-12-25T20:20:46.420Z,4.27
2022-12-25T20:25:48.002Z,3.93
2022-12-25T20:30:49.667Z,3.07
2022-12-25T20:35:51.712Z,3.20
2022-12-25T20:41:27.773Z,3.23
2022-12-25T20:46:30.637Z,3.43
2022-12-25T20:51:32.369Z,3.50
2022-12-25T20:56:34.625Z,3.40
2022-12-25T21:01:36.332Z,3.57
2022-12-25T21:06:38.013Z,4.33
2022-12-25T21:11:39.611Z,4.60
2022-12-25T21:16:41.432Z,3.57
2022-12-25T21:21:43.755Z,4.10
2022-12-25T21:26:48.189Z,4.57
2022-12-25T21:32:08.707Z,4.37
2022-12-25T21:37:10.264Z,3.77
2022-12-25T21:42:11.870Z,4.00
2022-12-25T21:47:13.559Z,4.33
2022-12-25T21:52:15.227Z,4.00
2022-12-25T21:57:16.922Z,4.10
2022-12-25T22:02:18.793Z,4.27
2022-12-25T22:07:20.714Z,4.40
2022-12-25T22:12:40.789Z,4.33
2022-12-25T22:18:02.093Z,4.57
2022-12-25T22:23:04.404Z,4.43
2022-12-25T22:28:06.063Z,4.53
2022-12-25T22:33:07.777Z,3.53
2022-12-25T22:38:09.340Z,3.67
2022-12-25T22:43:10.980Z,3.50
2022-12-25T22:48:12.575Z,3.60
2022-12-25T22:53:14.157Z,4.00
2022-12-25T22:58:16.153Z,3.70
2022-12-25T23:03:17.888Z,3.77
2022-12-25T23:08:19.632Z,4.43
2022-12-25T23:13:39.761Z,3.87
2022-12-25T23:19:00.019Z,4.50
2022-12-25T23:24:20.706Z,4.00
2022-12-25T23:29:37.720Z,4.30
2022-12-25T23:34:41.640Z,4.57
2022-12-25T23:39:43.568Z,4.80
2022-12-25T23:44:45.193Z,4.93
2022-12-25T23:49:46.913Z,4.23
2022-12-25T23:54:48.542Z,4.50
2022-12-25T23:59:50.173Z,4.07
